sensor_id;sensor_type;location;lat;lon;timestamp;temperature;humidity
73829;SHT30;62176;48.450;-4.466;2022-08-18T00:02:02;17.96;83.81
73829;SHT30;62176;48.450;-4.466;2022-08-18T00:04:29;18.01;83.69
73829;SHT30;62176;48.450;-4.466;2022-08-18T00:06:54;18.05;83.38
73829;SHT30;62176;48.450;-4.466;2022-08-18T00:09:19;18.02;82.91
73829;SHT30;62176;48.450;-4.466;2022-08-18T00:11:45;18.03;83.03
73829;SHT30;62176;48.450;-4.466;2022-08-18T00:14:14;18.02;83.08
73829;SHT30;62176;48.450;-4.466;2022-08-18T00:16:40;17.99;83.33
73829;SHT30;62176;48.450;-4.466;2022-08-18T00:19:06;17.99;83.32
73829;SHT30;62176;48.450;-4.466;2022-08-18T00:21:32;17.98;83.23
73829;SHT30;62176;48.450;-4.466;2022-08-18T00:23:58;18.02;83.52
73829;SHT30;62176;48.450;-4.466;2022-08-18T00:26:24;18.02;83.25
73829;SHT30;62176;48.450;-4.466;2022-08-18T00:28:49;18.06;83.81
73829;SHT30;62176;48.450;-4.466;2022-08-18T00:31:15;18.05;83.66
73829;SHT30;62176;48.450;-4.466;2022-08-18T00:33:40;18.08;83.40
73829;SHT30;62176;48.450;-4.466;2022-08-18T00:36:08;18.05;83.31
73829;SHT30;62176;48.450;-4.466;2022-08-18T00:38:33;18.06;83.56
73829;SHT30;62176;48.450;-4.466;2022-08-18T00:41:00;18.09;83.35
73829;SHT30;62176;48.450;-4.466;2022-08-18T00:43:45;18.12;83.48
73829;SHT30;62176;48.450;-4.466;2022-08-18T00:46:23;18.13;83.15
73829;SHT30;62176;48.450;-4.466;2022-08-18T00:48:49;18.09;83.19
73829;SHT30;62176;48.450;-4.466;2022-08-18T00:51:37;18.09;83.37
73829;SHT30;62176;48.450;-4.466;2022-08-18T00:56:46;18.06;83.33
73829;SHT30;62176;48.450;-4.466;2022-08-18T00:59:43;18.12;83.28
73829;SHT30;62176;48.450;-4.466;2022-08-18T01:02:12;18.09;83.25
73829;SHT30;62176;48.450;-4.466;2022-08-18T01:04:53;18.09;82.83
73829;SHT30;62176;48.450;-4.466;2022-08-18T01:07:24;18.09;83.39
73829;SHT30;62176;48.450;-4.466;2022-08-18T01:09:55;18.10;82.92
73829;SHT30;62176;48.450;-4.466;2022-08-18T01:12:25;18.13;82.96
73829;SHT30;62176;48.450;-4.466;2022-08-18T01:14:52;18.08;82.73
73829;SHT30;62176;48.450;-4.466;2022-08-18T01:17:19;18.10;82.79
73829;SHT30;62176;48.450;-4.466;2022-08-18T01:20:03;18.06;83.17
73829;SHT30;62176;48.450;-4.466;2022-08-18T01:23:10;18.06;83.41
73829;SHT30;62176;48.450;-4.466;2022-08-18T01:25:36;18.06;83.02
73829;SHT30;62176;48.450;-4.466;2022-08-18T01:28:20;18.06;82.91
73829;SHT30;62176;48.450;-4.466;2022-08-18T01:30:53;18.06;83.18
73829;SHT30;62176;48.450;-4.466;2022-08-18T01:33:24;18.02;83.29
73829;SHT30;62176;48.450;-4.466;2022-08-18T01:35:52;18.03;83.16
73829;SHT30;62176;48.450;-4.466;2022-08-18T01:38:19;18.06;83.08
73829;SHT30;62176;48.450;-4.466;2022-08-18T01:40:47;18.09;83.02
73829;SHT30;62176;48.450;-4.466;2022-08-18T01:43:13;18.10;82.93
73829;SHT30;62176;48.450;-4.466;2022-08-18T01:45:40;18.10;82.93
73829;SHT30;62176;48.450;-4.466;2022-08-18T01:48:06;18.12;83.05
73829;SHT30;62176;48.450;-4.466;2022-08-18T01:50:33;18.08;83.05
73829;SHT30;62176;48.450;-4.466;2022-08-18T01:53:00;18.08;82.92
73829;SHT30;62176;48.450;-4.466;2022-08-18T01:55:25;18.10;82.86
73829;SHT30;62176;48.450;-4.466;2022-08-18T01:57:54;18.12;83.10
73829;SHT30;62176;48.450;-4.466;2022-08-18T02:00:19;18.16;82.97
73829;SHT30;62176;48.450;-4.466;2022-08-18T02:02:46;18.16;82.99
73829;SHT30;62176;48.450;-4.466;2022-08-18T02:05:19;18.16;82.87
73829;SHT30;62176;48.450;-4.466;2022-08-18T02:07:46;18.13;82.84
73829;SHT30;62176;48.450;-4.466;2022-08-18T02:10:12;18.13;83.11
73829;SHT30;62176;48.450;-4.466;2022-08-18T02:12:39;18.16;82.83
73829;SHT30;62176;48.450;-4.466;2022-08-18T02:15:05;18.17;82.90
73829;SHT30;62176;48.450;-4.466;2022-08-18T02:17:43;18.17;83.29
73829;SHT30;62176;48.450;-4.466;2022-08-18T02:20:12;18.19;82.65
73829;SHT30;62176;48.450;-4.466;2022-08-18T02:22:39;18.17;83.13
73829;SHT30;62176;48.450;-4.466;2022-08-18T02:25:05;18.17;83.14
73829;SHT30;62176;48.450;-4.466;2022-08-18T02:27:30;18.12;82.92
73829;SHT30;62176;48.450;-4.466;2022-08-18T02:29:59;18.08;83.29
73829;SHT30;62176;48.450;-4.466;2022-08-18T02:32:24;18.05;83.14
73829;SHT30;62176;48.450;-4.466;2022-08-18T02:34:50;18.03;83.41
73829;SHT30;62176;48.450;-4.466;2022-08-18T02:37:15;18.01;83.76
73829;SHT30;62176;48.450;-4.466;2022-08-18T02:39:41;18.02;86.63
73829;SHT30;62176;48.450;-4.466;2022-08-18T02:42:07;17.99;83.61
73829;SHT30;62176;48.450;-4.466;2022-08-18T02:44:33;17.99;84.08
73829;SHT30;62176;48.450;-4.466;2022-08-18T02:46:59;18.01;84.75
73829;SHT30;62176;48.450;-4.466;2022-08-18T02:49:25;18.01;84.34
73829;SHT30;62176;48.450;-4.466;2022-08-18T02:51:52;17.98;83.83
73829;SHT30;62176;48.450;-4.466;2022-08-18T02:54:20;17.98;83.95
73829;SHT30;62176;48.450;-4.466;2022-08-18T02:56:47;17.96;83.78
73829;SHT30;62176;48.450;-4.466;2022-08-18T02:59:18;17.93;84.11
73829;SHT30;62176;48.450;-4.466;2022-08-18T03:01:47;17.93;83.86
73829;SHT30;62176;48.450;-4.466;2022-08-18T03:04:15;17.93;83.99
73829;SHT30;62176;48.450;-4.466;2022-08-18T03:06:42;17.95;83.96
73829;SHT30;62176;48.450;-4.466;2022-08-18T03:09:09;17.95;84.47
73829;SHT30;62176;48.450;-4.466;2022-08-18T03:11:35;17.93;83.99
73829;SHT30;62176;48.450;-4.466;2022-08-18T03:14:02;17.91;84.15
73829;SHT30;62176;48.450;-4.466;2022-08-18T03:16:29;17.92;83.97
73829;SHT30;62176;48.450;-4.466;2022-08-18T03:19:00;17.86;83.81
73829;SHT30;62176;48.450;-4.466;2022-08-18T03:21:27;17.89;84.17
73829;SHT30;62176;48.450;-4.466;2022-08-18T03:23:54;17.89;84.16
73829;SHT30;62176;48.450;-4.466;2022-08-18T03:26:21;17.83;84.06
73829;SHT30;62176;48.450;-4.466;2022-08-18T03:28:50;17.88;84.44
73829;SHT30;62176;48.450;-4.466;2022-08-18T03:31:18;17.86;84.04
73829;SHT30;62176;48.450;-4.466;2022-08-18T03:33:45;17.86;84.25
73829;SHT30;62176;48.450;-4.466;2022-08-18T03:36:16;17.86;84.25
73829;SHT30;62176;48.450;-4.466;2022-08-18T03:38:43;17.89;84.03
73829;SHT30;62176;48.450;-4.466;2022-08-18T03:41:12;17.89;84.10
73829;SHT30;62176;48.450;-4.466;2022-08-18T03:43:38;17.86;83.93
73829;SHT30;62176;48.450;-4.466;2022-08-18T03:46:06;17.82;84.03
73829;SHT30;62176;48.450;-4.466;2022-08-18T03:48:34;17.89;84.20
73829;SHT30;62176;48.450;-4.466;2022-08-18T03:51:05;17.86;83.92
73829;SHT30;62176;48.450;-4.466;2022-08-18T03:53:32;17.91;84.22
73829;SHT30;62176;48.450;-4.466;2022-08-18T03:55:59;17.95;83.95
73829;SHT30;62176;48.450;-4.466;2022-08-18T03:58:24;17.88;83.88
73829;SHT30;62176;48.450;-4.466;2022-08-18T04:00:50;17.92;84.06
73829;SHT30;62176;48.450;-4.466;2022-08-18T04:03:15;17.95;83.82
73829;SHT30;62176;48.450;-4.466;2022-08-18T04:05:41;17.96;83.77
73829;SHT30;62176;48.450;-4.466;2022-08-18T04:08:06;17.92;83.70
73829;SHT30;62176;48.450;-4.466;2022-08-18T04:10:32;17.93;83.69
73829;SHT30;62176;48.450;-4.466;2022-08-18T04:12:59;17.95;83.84
73829;SHT30;62176;48.450;-4.466;2022-08-18T04:15:25;17.96;83.64
73829;SHT30;62176;48.450;-4.466;2022-08-18T04:17:50;17.96;83.44
73829;SHT30;62176;48.450;-4.466;2022-08-18T04:20:16;17.95;83.37
73829;SHT30;62176;48.450;-4.466;2022-08-18T04:22:42;17.91;83.55
73829;SHT30;62176;48.450;-4.466;2022-08-18T04:25:09;17.92;83.59
73829;SHT30;62176;48.450;-4.466;2022-08-18T04:27:35;17.88;83.49
73829;SHT30;62176;48.450;-4.466;2022-08-18T04:30:04;17.89;83.44
73829;SHT30;62176;48.450;-4.466;2022-08-18T04:32:30;17.89;83.31
73829;SHT30;62176;48.450;-4.466;2022-08-18T04:34:55;17.86;83.27
73829;SHT30;62176;48.450;-4.466;2022-08-18T04:37:21;17.89;83.44
73829;SHT30;62176;48.450;-4.466;2022-08-18T04:39:47;17.89;83.43
73829;SHT30;62176;48.450;-4.466;2022-08-18T04:42:13;17.95;83.39
73829;SHT30;62176;48.450;-4.466;2022-08-18T04:44:40;17.86;83.05
73829;SHT30;62176;48.450;-4.466;2022-08-18T04:47:07;17.82;83.43
73829;SHT30;62176;48.450;-4.466;2022-08-18T04:49:37;17.83;83.18
73829;SHT30;62176;48.450;-4.466;2022-08-18T04:52:04;17.86;83.02
73829;SHT30;62176;48.450;-4.466;2022-08-18T04:54:49;17.88;83.05
73829;SHT30;62176;48.450;-4.466;2022-08-18T04:57:17;17.88;82.80
73829;SHT30;62176;48.450;-4.466;2022-08-18T04:59:45;17.82;82.73
73829;SHT30;62176;48.450;-4.466;2022-08-18T05:02:13;17.78;83.04
73829;SHT30;62176;48.450;-4.466;2022-08-18T05:04:40;17.78;83.16
73829;SHT30;62176;48.450;-4.466;2022-08-18T05:07:08;17.82;82.84
73829;SHT30;62176;48.450;-4.466;2022-08-18T05:09:35;17.81;82.84
73829;SHT30;62176;48.450;-4.466;2022-08-18T05:12:03;17.81;82.74
73829;SHT30;62176;48.450;-4.466;2022-08-18T05:14:29;17.79;82.72
73829;SHT30;62176;48.450;-4.466;2022-08-18T05:17:02;17.74;82.11
73829;SHT30;62176;48.450;-4.466;2022-08-18T05:19:29;17.79;82.44
73829;SHT30;62176;48.450;-4.466;2022-08-18T05:21:56;17.85;82.09
73829;SHT30;62176;48.450;-4.466;2022-08-18T05:24:22;17.81;81.92
73829;SHT30;62176;48.450;-4.466;2022-08-18T05:26:50;17.81;81.56
73829;SHT30;62176;48.450;-4.466;2022-08-18T05:29:15;17.82;81.99
73829;SHT30;62176;48.450;-4.466;2022-08-18T05:31:41;17.83;81.83
73829;SHT30;62176;48.450;-4.466;2022-08-18T05:34:07;17.83;81.67
73829;SHT30;62176;48.450;-4.466;2022-08-18T05:40:10;17.83;81.77
73829;SHT30;62176;48.450;-4.466;2022-08-18T05:42:19;17.85;81.03
73829;SHT30;62176;48.450;-4.466;2022-08-18T05:44:48;17.82;80.72
73829;SHT30;62176;48.450;-4.466;2022-08-18T05:47:31;17.82;81.10
73829;SHT30;62176;48.450;-4.466;2022-08-18T05:50:06;17.79;80.95
73829;SHT30;62176;48.450;-4.466;2022-08-18T05:58:36;17.85;81.44
73829;SHT30;62176;48.450;-4.466;2022-08-18T06:01:06;17.88;81.27
73829;SHT30;62176;48.450;-4.466;2022-08-18T06:03:48;17.89;80.97
73829;SHT30;62176;48.450;-4.466;2022-08-18T06:06:18;17.88;80.89
73829;SHT30;62176;48.450;-4.466;2022-08-18T06:09:33;17.92;80.84
73829;SHT30;62176;48.450;-4.466;2022-08-18T06:11:33;17.91;80.15
73829;SHT30;62176;48.450;-4.466;2022-08-18T06:13:58;17.93;79.69
73829;SHT30;62176;48.450;-4.466;2022-08-18T06:27:19;18.08;80.71
73829;SHT30;62176;48.450;-4.466;2022-08-18T06:41:07;18.08;79.65
73829;SHT30;62176;48.450;-4.466;2022-08-18T06:43:35;18.09;79.40
73829;SHT30;62176;48.450;-4.466;2022-08-18T06:46:10;18.09;79.25
73829;SHT30;62176;48.450;-4.466;2022-08-18T06:48:50;18.13;79.23
73829;SHT30;62176;48.450;-4.466;2022-08-18T06:51:20;18.19;79.29
73829;SHT30;62176;48.450;-4.466;2022-08-18T06:53:50;18.22;78.87
73829;SHT30;62176;48.450;-4.466;2022-08-18T06:56:26;18.23;78.05
73829;SHT30;62176;48.450;-4.466;2022-08-18T06:58:53;18.29;78.83
73829;SHT30;62176;48.450;-4.466;2022-08-18T07:01:21;18.30;78.59
73829;SHT30;62176;48.450;-4.466;2022-08-18T07:03:56;18.32;77.77
73829;SHT30;62176;48.450;-4.466;2022-08-18T07:06:27;18.34;78.14
73829;SHT30;62176;48.450;-4.466;2022-08-18T07:08:55;18.36;77.20
73829;SHT30;62176;48.450;-4.466;2022-08-18T07:11:40;18.39;77.67
73829;SHT30;62176;48.450;-4.466;2022-08-18T07:14:23;18.40;77.21
73829;SHT30;62176;48.450;-4.466;2022-08-18T07:16:50;18.42;76.65
73829;SHT30;62176;48.450;-4.466;2022-08-18T07:19:30;18.44;76.69
73829;SHT30;62176;48.450;-4.466;2022-08-18T07:22:14;18.49;76.92
73829;SHT30;62176;48.450;-4.466;2022-08-18T07:24:48;18.53;77.00
73829;SHT30;62176;48.450;-4.466;2022-08-18T07:29:58;18.52;76.90
73829;SHT30;62176;48.450;-4.466;2022-08-18T07:32:28;18.56;75.89
73829;SHT30;62176;48.450;-4.466;2022-08-18T07:34:57;18.54;76.07
73829;SHT30;62176;48.450;-4.466;2022-08-18T07:37:42;18.54;76.69
73829;SHT30;62176;48.450;-4.466;2022-08-18T07:40:22;18.59;76.57
73829;SHT30;62176;48.450;-4.466;2022-08-18T07:42:51;18.56;75.94
73829;SHT30;62176;48.450;-4.466;2022-08-18T07:48:01;18.57;76.51
73829;SHT30;62176;48.450;-4.466;2022-08-18T07:50:36;18.63;77.06
73829;SHT30;62176;48.450;-4.466;2022-08-18T07:56:09;18.70;75.65
73829;SHT30;62176;48.450;-4.466;2022-08-18T07:58:52;18.71;75.57
73829;SHT30;62176;48.450;-4.466;2022-08-18T08:04:19;18.77;75.65
73829;SHT30;62176;48.450;-4.466;2022-08-18T08:07:37;18.87;76.58
73829;SHT30;62176;48.450;-4.466;2022-08-18T08:09:51;18.94;75.16
73829;SHT30;62176;48.450;-4.466;2022-08-18T08:12:42;19.04;75.21
73829;SHT30;62176;48.450;-4.466;2022-08-18T08:15:26;19.18;74.65
73829;SHT30;62176;48.450;-4.466;2022-08-18T08:18:16;19.25;75.17
73829;SHT30;62176;48.450;-4.466;2022-08-18T08:21:04;19.38;76.22
73829;SHT30;62176;48.450;-4.466;2022-08-18T08:23:40;19.42;73.41
73829;SHT30;62176;48.450;-4.466;2022-08-18T08:29:29;19.52;72.80
73829;SHT30;62176;48.450;-4.466;2022-08-18T08:32:19;19.55;72.76
73829;SHT30;62176;48.450;-4.466;2022-08-18T08:34:48;19.62;72.02
73829;SHT30;62176;48.450;-4.466;2022-08-18T08:37:23;19.58;72.25
73829;SHT30;62176;48.450;-4.466;2022-08-18T08:40:02;19.59;72.17
73829;SHT30;62176;48.450;-4.466;2022-08-18T08:42:43;19.65;72.00
73829;SHT30;62176;48.450;-4.466;2022-08-18T08:45:17;19.71;71.60
73829;SHT30;62176;48.450;-4.466;2022-08-18T08:50:32;19.90;70.82
73829;SHT30;62176;48.450;-4.466;2022-08-18T08:55:40;20.00;71.35
73829;SHT30;62176;48.450;-4.466;2022-08-18T08:58:24;20.06;69.65
73829;SHT30;62176;48.450;-4.466;2022-08-18T09:00:52;20.08;69.71
73829;SHT30;62176;48.450;-4.466;2022-08-18T09:03:47;20.13;70.72
73829;SHT30;62176;48.450;-4.466;2022-08-18T09:08:58;20.17;69.79
73829;SHT30;62176;48.450;-4.466;2022-08-18T09:22:49;20.08;69.73
73829;SHT30;62176;48.450;-4.466;2022-08-18T09:25:49;20.17;69.16
73829;SHT30;62176;48.450;-4.466;2022-08-18T09:28:38;20.23;69.16
73829;SHT30;62176;48.450;-4.466;2022-08-18T09:38:37;20.13;69.84
73829;SHT30;62176;48.450;-4.466;2022-08-18T09:41:29;20.14;70.37
73829;SHT30;62176;48.450;-4.466;2022-08-18T09:44:01;20.19;70.42
73829;SHT30;62176;48.450;-4.466;2022-08-18T09:52:00;20.34;68.22
73829;SHT30;62176;48.450;-4.466;2022-08-18T09:57:24;20.36;67.95
73829;SHT30;62176;48.450;-4.466;2022-08-18T10:07:53;20.46;66.34
73829;SHT30;62176;48.450;-4.466;2022-08-18T10:10:28;20.43;64.99
73829;SHT30;62176;48.450;-4.466;2022-08-18T10:16:17;20.48;67.11
73829;SHT30;62176;48.450;-4.466;2022-08-18T10:21:28;20.50;65.96
73829;SHT30;62176;48.450;-4.466;2022-08-18T10:29:07;20.46;66.45
73829;SHT30;62176;48.450;-4.466;2022-08-18T10:34:41;20.57;66.34
73829;SHT30;62176;48.450;-4.466;2022-08-18T10:42:11;20.71;65.50
73829;SHT30;62176;48.450;-4.466;2022-08-18T10:44:45;20.81;65.94
73829;SHT30;62176;48.450;-4.466;2022-08-18T10:47:29;20.87;64.11
73829;SHT30;62176;48.450;-4.466;2022-08-18T10:49:55;20.99;65.62
73829;SHT30;62176;48.450;-4.466;2022-08-18T11:00:20;21.02;63.42
73829;SHT30;62176;48.450;-4.466;2022-08-18T11:03:04;21.04;63.88
73829;SHT30;62176;48.450;-4.466;2022-08-18T11:05:34;21.12;65.37
73829;SHT30;62176;48.450;-4.466;2022-08-18T11:08:03;21.19;64.13
73829;SHT30;62176;48.450;-4.466;2022-08-18T11:10:44;21.25;63.48
73829;SHT30;62176;48.450;-4.466;2022-08-18T11:16:37;21.41;63.89
73829;SHT30;62176;48.450;-4.466;2022-08-18T11:19:10;21.34;62.29
73829;SHT30;62176;48.450;-4.466;2022-08-18T11:26:33;21.35;61.63
73829;SHT30;62176;48.450;-4.466;2022-08-18T11:29:19;21.39;61.66
73829;SHT30;62176;48.450;-4.466;2022-08-18T11:31:47;21.34;62.32
73829;SHT30;62176;48.450;-4.466;2022-08-18T11:34:22;21.31;61.03
73829;SHT30;62176;48.450;-4.466;2022-08-18T11:37:01;21.34;60.82
73829;SHT30;62176;48.450;-4.466;2022-08-18T11:39:28;21.32;60.26
73829;SHT30;62176;48.450;-4.466;2022-08-18T11:41:54;21.41;59.74
73829;SHT30;62176;48.450;-4.466;2022-08-18T11:44:25;21.42;61.01
73829;SHT30;62176;48.450;-4.466;2022-08-18T11:47:08;21.58;62.20
73829;SHT30;62176;48.450;-4.466;2022-08-18T11:49:35;21.67;61.25
73829;SHT30;62176;48.450;-4.466;2022-08-18T11:52:18;21.75;61.72
73829;SHT30;62176;48.450;-4.466;2022-08-18T11:54:47;21.72;60.60
73829;SHT30;62176;48.450;-4.466;2022-08-18T11:57:39;21.69;61.27
73829;SHT30;62176;48.450;-4.466;2022-08-18T12:00:36;21.73;62.82
73829;SHT30;62176;48.450;-4.466;2022-08-18T12:03:09;21.70;61.88
73829;SHT30;62176;48.450;-4.466;2022-08-18T12:05:51;21.67;60.36
73829;SHT30;62176;48.450;-4.466;2022-08-18T12:08:30;21.66;60.73
73829;SHT30;62176;48.450;-4.466;2022-08-18T12:11:19;21.60;61.83
73829;SHT30;62176;48.450;-4.466;2022-08-18T12:13:47;21.69;63.29
73829;SHT30;62176;48.450;-4.466;2022-08-18T12:16:40;21.82;60.69
73829;SHT30;62176;48.450;-4.466;2022-08-18T12:19:09;21.83;61.38
73829;SHT30;62176;48.450;-4.466;2022-08-18T12:21:43;21.86;61.22
73829;SHT30;62176;48.450;-4.466;2022-08-18T12:24:18;21.97;61.12
73829;SHT30;62176;48.450;-4.466;2022-08-18T12:26:45;22.06;61.90
73829;SHT30;62176;48.450;-4.466;2022-08-18T12:29:10;22.10;61.36
73829;SHT30;62176;48.450;-4.466;2022-08-18T12:31:36;22.06;62.37
73829;SHT30;62176;48.450;-4.466;2022-08-18T12:34:01;22.10;60.58
73829;SHT30;62176;48.450;-4.466;2022-08-18T12:36:29;22.09;60.59
73829;SHT30;62176;48.450;-4.466;2022-08-18T12:38:54;22.12;61.17
73829;SHT30;62176;48.450;-4.466;2022-08-18T12:41:20;22.04;59.91
73829;SHT30;62176;48.450;-4.466;2022-08-18T12:43:45;22.07;62.03
73829;SHT30;62176;48.450;-4.466;2022-08-18T12:46:12;22.04;61.19
73829;SHT30;62176;48.450;-4.466;2022-08-18T12:48:38;21.97;58.97
73829;SHT30;62176;48.450;-4.466;2022-08-18T12:51:04;21.89;59.93
73829;SHT30;62176;48.450;-4.466;2022-08-18T12:53:30;21.78;60.84
73829;SHT30;62176;48.450;-4.466;2022-08-18T12:55:56;21.69;61.38
73829;SHT30;62176;48.450;-4.466;2022-08-18T12:58:21;21.63;62.33
73829;SHT30;62176;48.450;-4.466;2022-08-18T13:00:47;21.58;61.08
73829;SHT30;62176;48.450;-4.466;2022-08-18T13:03:12;21.53;60.99
73829;SHT30;62176;48.450;-4.466;2022-08-18T13:05:39;21.48;59.53
73829;SHT30;62176;48.450;-4.466;2022-08-18T13:08:10;21.43;60.79
73829;SHT30;62176;48.450;-4.466;2022-08-18T13:10:37;21.41;60.42
73829;SHT30;62176;48.450;-4.466;2022-08-18T13:13:02;21.46;61.11
73829;SHT30;62176;48.450;-4.466;2022-08-18T13:15:28;21.49;61.58
73829;SHT30;62176;48.450;-4.466;2022-08-18T13:17:53;21.56;62.73
73829;SHT30;62176;48.450;-4.466;2022-08-18T13:20:19;21.53;62.32
73829;SHT30;62176;48.450;-4.466;2022-08-18T13:22:45;21.52;62.21
73829;SHT30;62176;48.450;-4.466;2022-08-18T13:25:14;21.45;63.06
73829;SHT30;62176;48.450;-4.466;2022-08-18T13:27:40;21.50;62.88
73829;SHT30;62176;48.450;-4.466;2022-08-18T13:30:09;21.53;63.91
73829;SHT30;62176;48.450;-4.466;2022-08-18T13:32:35;21.52;62.74
73829;SHT30;62176;48.450;-4.466;2022-08-18T13:35:01;21.50;62.31
73829;SHT30;62176;48.450;-4.466;2022-08-18T13:37:27;21.53;63.41
73829;SHT30;62176;48.450;-4.466;2022-08-18T13:39:58;21.42;63.93
73829;SHT30;62176;48.450;-4.466;2022-08-18T13:42:23;21.34;64.14
73829;SHT30;62176;48.450;-4.466;2022-08-18T13:44:49;21.28;65.26
73829;SHT30;62176;48.450;-4.466;2022-08-18T13:47:15;21.25;66.07
73829;SHT30;62176;48.450;-4.466;2022-08-18T13:49:40;21.28;67.03
73829;SHT30;62176;48.450;-4.466;2022-08-18T13:52:06;21.29;67.13
73829;SHT30;62176;48.450;-4.466;2022-08-18T13:54:32;21.29;66.89
73829;SHT30;62176;48.450;-4.466;2022-08-18T13:56:59;21.28;66.94
73829;SHT30;62176;48.450;-4.466;2022-08-18T13:59:25;21.27;67.10
73829;SHT30;62176;48.450;-4.466;2022-08-18T14:02:02;21.29;67.52
73829;SHT30;62176;48.450;-4.466;2022-08-18T14:04:29;21.24;67.95
73829;SHT30;62176;48.450;-4.466;2022-08-18T14:06:55;21.25;68.81
73829;SHT30;62176;48.450;-4.466;2022-08-18T14:09:21;21.28;68.83
73829;SHT30;62176;48.450;-4.466;2022-08-18T14:11:47;21.22;68.91
73829;SHT30;62176;48.450;-4.466;2022-08-18T14:14:13;21.17;69.45
73829;SHT30;62176;48.450;-4.466;2022-08-18T14:16:39;21.14;69.21
73829;SHT30;62176;48.450;-4.466;2022-08-18T14:19:05;21.07;69.59
73829;SHT30;62176;48.450;-4.466;2022-08-18T14:21:52;21.05;70.09
73829;SHT30;62176;48.450;-4.466;2022-08-18T14:24:37;21.02;70.06
73829;SHT30;62176;48.450;-4.466;2022-08-18T14:27:33;21.01;70.42
73829;SHT30;62176;48.450;-4.466;2022-08-18T14:30:00;20.94;70.75
73829;SHT30;62176;48.450;-4.466;2022-08-18T14:32:27;20.88;70.85
73829;SHT30;62176;48.450;-4.466;2022-08-18T14:34:57;20.87;71.34
73829;SHT30;62176;48.450;-4.466;2022-08-18T14:37:23;20.81;71.76
73829;SHT30;62176;48.450;-4.466;2022-08-18T14:39:49;20.80;72.33
73829;SHT30;62176;48.450;-4.466;2022-08-18T14:42:16;20.81;72.47
73829;SHT30;62176;48.450;-4.466;2022-08-18T14:44:43;20.76;72.98
73829;SHT30;62176;48.450;-4.466;2022-08-18T14:47:09;20.70;73.48
73829;SHT30;62176;48.450;-4.466;2022-08-18T14:49:35;20.63;74.08
73829;SHT30;62176;48.450;-4.466;2022-08-18T14:52:01;20.58;74.63
73829;SHT30;62176;48.450;-4.466;2022-08-18T14:54:28;20.57;74.88
73829;SHT30;62176;48.450;-4.466;2022-08-18T14:56:53;20.50;75.54
73829;SHT30;62176;48.450;-4.466;2022-08-18T14:59:19;20.44;76.16
73829;SHT30;62176;48.450;-4.466;2022-08-18T15:01:44;20.39;77.30
73829;SHT30;62176;48.450;-4.466;2022-08-18T15:04:10;20.39;77.34
73829;SHT30;62176;48.450;-4.466;2022-08-18T15:06:36;20.34;77.31
73829;SHT30;62176;48.450;-4.466;2022-08-18T15:09:02;20.26;77.34
73829;SHT30;62176;48.450;-4.466;2022-08-18T15:11:27;20.24;77.43
73829;SHT30;62176;48.450;-4.466;2022-08-18T15:13:53;20.29;77.50
73829;SHT30;62176;48.450;-4.466;2022-08-18T15:16:19;20.26;77.70
73829;SHT30;62176;48.450;-4.466;2022-08-18T15:18:46;20.32;78.18
73829;SHT30;62176;48.450;-4.466;2022-08-18T15:21:13;20.34;77.70
73829;SHT30;62176;48.450;-4.466;2022-08-18T15:23:57;20.37;77.43
73829;SHT30;62176;48.450;-4.466;2022-08-18T15:26:41;20.37;77.59
73829;SHT30;62176;48.450;-4.466;2022-08-18T15:29:09;20.36;77.76
73829;SHT30;62176;48.450;-4.466;2022-08-18T15:31:35;20.32;77.71
73829;SHT30;62176;48.450;-4.466;2022-08-18T15:34:01;20.26;78.07
73829;SHT30;62176;48.450;-4.466;2022-08-18T15:36:28;20.24;78.39
73829;SHT30;62176;48.450;-4.466;2022-08-18T15:38:56;20.23;78.73
73829;SHT30;62176;48.450;-4.466;2022-08-18T15:44:00;20.20;78.61
73829;SHT30;62176;48.450;-4.466;2022-08-18T15:46:27;20.09;79.30
73829;SHT30;62176;48.450;-4.466;2022-08-18T15:48:53;20.08;79.55
73829;SHT30;62176;48.450;-4.466;2022-08-18T15:51:19;20.03;79.95
73829;SHT30;62176;48.450;-4.466;2022-08-18T15:53:44;20.03;80.14
73829;SHT30;62176;48.450;-4.466;2022-08-18T15:56:15;20.02;80.36
73829;SHT30;62176;48.450;-4.466;2022-08-18T15:58:41;20.02;80.52
73829;SHT30;62176;48.450;-4.466;2022-08-18T16:01:09;19.99;81.27
73829;SHT30;62176;48.450;-4.466;2022-08-18T16:03:35;19.96;80.99
73829;SHT30;62176;48.450;-4.466;2022-08-18T16:06:02;19.89;81.39
73829;SHT30;62176;48.450;-4.466;2022-08-18T16:08:28;19.81;83.34
73829;SHT30;62176;48.450;-4.466;2022-08-18T16:10:54;19.82;82.38
73829;SHT30;62176;48.450;-4.466;2022-08-18T16:13:21;19.82;82.77
73829;SHT30;62176;48.450;-4.466;2022-08-18T16:15:47;19.76;83.15
73829;SHT30;62176;48.450;-4.466;2022-08-18T16:18:16;19.72;83.64
73829;SHT30;62176;48.450;-4.466;2022-08-18T16:20:43;19.73;83.29
73829;SHT30;62176;48.450;-4.466;2022-08-18T16:23:09;19.69;84.34
73829;SHT30;62176;48.450;-4.466;2022-08-18T16:25:37;19.66;83.99
73829;SHT30;62176;48.450;-4.466;2022-08-18T16:28:03;19.66;84.14
73829;SHT30;62176;48.450;-4.466;2022-08-18T16:30:29;19.62;84.72
73829;SHT30;62176;48.450;-4.466;2022-08-18T16:32:59;19.59;84.14
73829;SHT30;62176;48.450;-4.466;2022-08-18T16:35:27;19.58;84.28
73829;SHT30;62176;48.450;-4.466;2022-08-18T16:37:52;19.51;84.57
73829;SHT30;62176;48.450;-4.466;2022-08-18T16:40:18;19.54;84.99
73829;SHT30;62176;48.450;-4.466;2022-08-18T16:42:45;19.49;85.22
73829;SHT30;62176;48.450;-4.466;2022-08-18T16:45:11;19.52;84.79
73829;SHT30;62176;48.450;-4.466;2022-08-18T16:47:37;19.55;84.97
73829;SHT30;62176;48.450;-4.466;2022-08-18T16:50:13;19.51;84.63
73829;SHT30;62176;48.450;-4.466;2022-08-18T16:52:39;19.52;84.86
73829;SHT30;62176;48.450;-4.466;2022-08-18T16:55:07;19.52;84.94
73829;SHT30;62176;48.450;-4.466;2022-08-18T16:57:33;19.52;85.57
73829;SHT30;62176;48.450;-4.466;2022-08-18T17:00:18;19.54;85.05
73829;SHT30;62176;48.450;-4.466;2022-08-18T17:03:05;19.54;84.91
73829;SHT30;62176;48.450;-4.466;2022-08-18T17:05:58;19.57;84.85
73829;SHT30;62176;48.450;-4.466;2022-08-18T17:08:24;19.58;85.24
73829;SHT30;62176;48.450;-4.466;2022-08-18T17:10:49;19.58;85.31
73829;SHT30;62176;48.450;-4.466;2022-08-18T17:13:15;19.55;86.24
73829;SHT30;62176;48.450;-4.466;2022-08-18T17:15:40;19.51;86.06
73829;SHT30;62176;48.450;-4.466;2022-08-18T17:18:06;19.48;87.51
73829;SHT30;62176;48.450;-4.466;2022-08-18T17:20:33;19.44;86.32
73829;SHT30;62176;48.450;-4.466;2022-08-18T17:22:59;19.45;86.73
73829;SHT30;62176;48.450;-4.466;2022-08-18T17:25:25;19.47;86.09
73829;SHT30;62176;48.450;-4.466;2022-08-18T17:27:51;19.45;86.03
73829;SHT30;62176;48.450;-4.466;2022-08-18T17:30:19;19.44;86.05
73829;SHT30;62176;48.450;-4.466;2022-08-18T17:35:52;19.48;85.97
73829;SHT30;62176;48.450;-4.466;2022-08-18T17:40:56;19.49;86.16
73829;SHT30;62176;48.450;-4.466;2022-08-18T17:43:25;19.49;86.31
73829;SHT30;62176;48.450;-4.466;2022-08-18T17:46:08;19.51;86.36
73829;SHT30;62176;48.450;-4.466;2022-08-18T17:48:59;19.55;86.28
73829;SHT30;62176;48.450;-4.466;2022-08-18T17:51:36;19.58;86.17